Elm Grove, Louisiana
Current Conditions -  °F | °C
As of 2:26 PM on Monday 22 Dec 2014 (Local Time) from KDTN Reporting Station
Broken Clouds Broken Clouds  
Wind Chill: 65°   Ceiling: 2000
Heat Index: 65°   Visibility: 10mi
Dew Point: 56°   Wind: 10mph
Humidity: 73%   Direction: 180°S
Pressure: 29.55"   Gusts: NA
Location:  32.35°N, 93.55°W
Report Text: KDTN 222026Z 18009KT 10SM BKN020 BKN025 BKN035 18/13 A2955 RMK AO2 T01830133
Loading
Personal Weather Stations






























Interactive Weather Map New forecast layout! Learn more

10-Day Weather Forecast

Advertisements
Track Severe Weather on mobile